sensor_id;sensor_type;location;lat;lon;timestamp;temperature;humidity
18191;DHT22;47004;51.366;12.348;2023-07-20T00:01:40;15.50;99.90
18191;DHT22;47004;51.366;12.348;2023-07-20T00:03:45;15.50;99.90
18191;DHT22;47004;51.366;12.348;2023-07-20T00:05:49;15.50;99.90
18191;DHT22;47004;51.366;12.348;2023-07-20T00:07:50;15.50;99.90
18191;DHT22;47004;51.366;12.348;2023-07-20T00:09:52;15.40;99.90
18191;DHT22;47004;51.366;12.348;2023-07-20T00:11:54;15.40;99.90
18191;DHT22;47004;51.366;12.348;2023-07-20T00:13:57;15.40;99.90
18191;DHT22;47004;51.366;12.348;2023-07-20T00:15:59;15.40;99.90
18191;DHT22;47004;51.366;12.348;2023-07-20T00:18:01;15.40;99.90
18191;DHT22;47004;51.366;12.348;2023-07-20T00:20:04;15.40;99.90
18191;DHT22;47004;51.366;12.348;2023-07-20T00:22:06;15.40;99.90
18191;DHT22;47004;51.366;12.348;2023-07-20T00:24:08;15.40;99.90
18191;DHT22;47004;51.366;12.348;2023-07-20T00:26:10;15.40;99.90
18191;DHT22;47004;51.366;12.348;2023-07-20T00:28:12;15.40;99.90
18191;DHT22;47004;51.366;12.348;2023-07-20T00:30:16;15.40;99.90
18191;DHT22;47004;51.366;12.348;2023-07-20T00:32:19;15.30;99.90
18191;DHT22;47004;51.366;12.348;2023-07-20T00:34:20;15.30;99.90
18191;DHT22;47004;51.366;12.348;2023-07-20T00:36:22;15.30;99.90
18191;DHT22;47004;51.366;12.348;2023-07-20T00:38:24;15.30;99.90
18191;DHT22;47004;51.366;12.348;2023-07-20T00:40:26;15.30;99.90
18191;DHT22;47004;51.366;12.348;2023-07-20T00:42:28;15.30;99.90
18191;DHT22;47004;51.366;12.348;2023-07-20T00:44:30;15.30;99.90
18191;DHT22;47004;51.366;12.348;2023-07-20T00:46:33;15.30;99.90
18191;DHT22;47004;51.366;12.348;2023-07-20T00:48:35;15.30;99.90
18191;DHT22;47004;51.366;12.348;2023-07-20T00:50:38;15.30;99.90
18191;DHT22;47004;51.366;12.348;2023-07-20T00:52:42;15.30;99.90
18191;DHT22;47004;51.366;12.348;2023-07-20T00:54:45;15.30;99.90
18191;DHT22;47004;51.366;12.348;2023-07-20T00:56:47;15.30;99.90
18191;DHT22;47004;51.366;12.348;2023-07-20T00:58:49;15.30;99.90
18191;DHT22;47004;51.366;12.348;2023-07-20T01:00:51;15.30;99.90
18191;DHT22;47004;51.366;12.348;2023-07-20T01:02:54;15.30;99.90
18191;DHT22;47004;51.366;12.348;2023-07-20T01:04:56;15.30;99.90
18191;DHT22;47004;51.366;12.348;2023-07-20T01:07:03;15.30;99.90
18191;DHT22;47004;51.366;12.348;2023-07-20T01:09:13;15.30;99.90
18191;DHT22;47004;51.366;12.348;2023-07-20T01:11:19;15.30;99.90
18191;DHT22;47004;51.366;12.348;2023-07-20T01:13:23;15.30;99.90
18191;DHT22;47004;51.366;12.348;2023-07-20T01:15:26;15.40;99.90
18191;DHT22;47004;51.366;12.348;2023-07-20T01:17:28;15.30;99.90
18191;DHT22;47004;51.366;12.348;2023-07-20T01:19:30;15.30;99.90
18191;DHT22;47004;51.366;12.348;2023-07-20T01:21:39;15.30;99.90
18191;DHT22;47004;51.366;12.348;2023-07-20T01:26:47;15.30;99.90
18191;DHT22;47004;51.366;12.348;2023-07-20T01:29:10;15.30;99.90
18191;DHT22;47004;51.366;12.348;2023-07-20T01:31:19;15.30;99.90
18191;DHT22;47004;51.366;12.348;2023-07-20T01:33:24;15.30;99.90
18191;DHT22;47004;51.366;12.348;2023-07-20T01:35:29;15.30;99.90
18191;DHT22;47004;51.366;12.348;2023-07-20T01:37:32;15.30;99.90
18191;DHT22;47004;51.366;12.348;2023-07-20T01:39:35;15.30;99.90
18191;DHT22;47004;51.366;12.348;2023-07-20T01:41:37;15.30;99.90
18191;DHT22;47004;51.366;12.348;2023-07-20T01:43:40;15.30;99.90
18191;DHT22;47004;51.366;12.348;2023-07-20T01:45:42;15.20;99.90
18191;DHT22;47004;51.366;12.348;2023-07-20T01:47:45;15.20;99.90
18191;DHT22;47004;51.366;12.348;2023-07-20T01:49:47;15.20;99.90
18191;DHT22;47004;51.366;12.348;2023-07-20T01:51:48;15.20;99.90
18191;DHT22;47004;51.366;12.348;2023-07-20T01:53:50;15.20;99.90
18191;DHT22;47004;51.366;12.348;2023-07-20T01:55:52;15.10;99.90
18191;DHT22;47004;51.366;12.348;2023-07-20T01:57:55;15.10;99.90
18191;DHT22;47004;51.366;12.348;2023-07-20T01:59:56;15.10;99.90
18191;DHT22;47004;51.366;12.348;2023-07-20T02:01:57;15.00;99.90
18191;DHT22;47004;51.366;12.348;2023-07-20T02:04:01;15.10;99.90
18191;DHT22;47004;51.366;12.348;2023-07-20T02:06:03;15.00;99.90
18191;DHT22;47004;51.366;12.348;2023-07-20T02:08:05;15.00;99.90
18191;DHT22;47004;51.366;12.348;2023-07-20T02:10:06;15.00;99.90
18191;DHT22;47004;51.366;12.348;2023-07-20T02:12:09;15.00;99.90
18191;DHT22;47004;51.366;12.348;2023-07-20T02:14:11;14.90;99.90
18191;DHT22;47004;51.366;12.348;2023-07-20T02:16:13;14.90;99.90
18191;DHT22;47004;51.366;12.348;2023-07-20T02:18:14;14.80;99.90
18191;DHT22;47004;51.366;12.348;2023-07-20T02:20:19;14.80;99.90
18191;DHT22;47004;51.366;12.348;2023-07-20T02:22:21;14.80;99.90
18191;DHT22;47004;51.366;12.348;2023-07-20T02:24:23;14.80;99.90
18191;DHT22;47004;51.366;12.348;2023-07-20T02:26:25;14.90;99.90
18191;DHT22;47004;51.366;12.348;2023-07-20T02:28:27;14.80;99.90
18191;DHT22;47004;51.366;12.348;2023-07-20T02:30:29;14.80;99.90
18191;DHT22;47004;51.366;12.348;2023-07-20T02:32:33;14.90;99.90
18191;DHT22;47004;51.366;12.348;2023-07-20T02:34:35;15.00;99.90
18191;DHT22;47004;51.366;12.348;2023-07-20T02:36:38;14.90;99.90
18191;DHT22;47004;51.366;12.348;2023-07-20T02:38:46;14.90;99.90
18191;DHT22;47004;51.366;12.348;2023-07-20T02:40:47;14.90;99.90
18191;DHT22;47004;51.366;12.348;2023-07-20T02:42:50;14.90;99.90
18191;DHT22;47004;51.366;12.348;2023-07-20T02:44:51;14.90;99.90
18191;DHT22;47004;51.366;12.348;2023-07-20T02:46:53;14.90;99.90
18191;DHT22;47004;51.366;12.348;2023-07-20T02:48:55;14.90;99.90
18191;DHT22;47004;51.366;12.348;2023-07-20T02:50:57;14.80;99.90
18191;DHT22;47004;51.366;12.348;2023-07-20T02:53:00;14.90;99.90
18191;DHT22;47004;51.366;12.348;2023-07-20T02:55:02;14.90;99.90
18191;DHT22;47004;51.366;12.348;2023-07-20T02:57:04;14.90;99.90
18191;DHT22;47004;51.366;12.348;2023-07-20T02:59:06;14.80;99.90
18191;DHT22;47004;51.366;12.348;2023-07-20T03:01:08;14.90;99.90
18191;DHT22;47004;51.366;12.348;2023-07-20T03:03:11;14.90;99.90
18191;DHT22;47004;51.366;12.348;2023-07-20T03:05:13;14.90;99.90
18191;DHT22;47004;51.366;12.348;2023-07-20T03:07:17;14.90;99.90
18191;DHT22;47004;51.366;12.348;2023-07-20T03:09:20;14.90;99.90
18191;DHT22;47004;51.366;12.348;2023-07-20T03:11:23;14.90;99.90
18191;DHT22;47004;51.366;12.348;2023-07-20T03:13:25;14.90;99.90
18191;DHT22;47004;51.366;12.348;2023-07-20T03:15:26;14.90;99.90
18191;DHT22;47004;51.366;12.348;2023-07-20T03:17:29;14.90;99.90
18191;DHT22;47004;51.366;12.348;2023-07-20T03:19:30;15.00;99.90
18191;DHT22;47004;51.366;12.348;2023-07-20T03:21:32;15.00;99.90
18191;DHT22;47004;51.366;12.348;2023-07-20T03:23:34;15.00;99.90
18191;DHT22;47004;51.366;12.348;2023-07-20T03:25:37;15.00;99.90
18191;DHT22;47004;51.366;12.348;2023-07-20T03:27:39;15.00;99.90
18191;DHT22;47004;51.366;12.348;2023-07-20T03:29:41;15.00;99.90
18191;DHT22;47004;51.366;12.348;2023-07-20T03:31:43;15.00;99.90
18191;DHT22;47004;51.366;12.348;2023-07-20T03:33:45;15.00;99.90
18191;DHT22;47004;51.366;12.348;2023-07-20T03:35:47;15.00;99.90
18191;DHT22;47004;51.366;12.348;2023-07-20T03:37:49;15.10;99.90
18191;DHT22;47004;51.366;12.348;2023-07-20T03:39:50;15.10;99.90
18191;DHT22;47004;51.366;12.348;2023-07-20T03:41:54;15.10;99.90
18191;DHT22;47004;51.366;12.348;2023-07-20T03:43:58;15.10;99.90
18191;DHT22;47004;51.366;12.348;2023-07-20T03:46:00;15.10;99.90
18191;DHT22;47004;51.366;12.348;2023-07-20T03:48:07;15.10;99.90
18191;DHT22;47004;51.366;12.348;2023-07-20T03:50:10;15.10;99.90
18191;DHT22;47004;51.366;12.348;2023-07-20T03:52:12;15.10;99.90
18191;DHT22;47004;51.366;12.348;2023-07-20T03:54:13;15.10;99.90
18191;DHT22;47004;51.366;12.348;2023-07-20T03:56:15;15.10;99.90
18191;DHT22;47004;51.366;12.348;2023-07-20T03:58:19;15.10;99.90
18191;DHT22;47004;51.366;12.348;2023-07-20T04:00:22;15.10;99.90
18191;DHT22;47004;51.366;12.348;2023-07-20T04:02:24;15.10;99.90
18191;DHT22;47004;51.366;12.348;2023-07-20T04:04:26;15.10;99.90
18191;DHT22;47004;51.366;12.348;2023-07-20T04:06:28;15.10;99.90
18191;DHT22;47004;51.366;12.348;2023-07-20T04:08:30;15.10;99.90
18191;DHT22;47004;51.366;12.348;2023-07-20T04:10:32;15.10;99.90
18191;DHT22;47004;51.366;12.348;2023-07-20T04:12:34;15.10;99.90
18191;DHT22;47004;51.366;12.348;2023-07-20T04:14:39;15.10;99.90
18191;DHT22;47004;51.366;12.348;2023-07-20T04:16:41;15.20;99.90
18191;DHT22;47004;51.366;12.348;2023-07-20T04:18:43;15.20;99.90
18191;DHT22;47004;51.366;12.348;2023-07-20T04:20:44;15.20;99.90
18191;DHT22;47004;51.366;12.348;2023-07-20T04:22:46;15.20;99.90
18191;DHT22;47004;51.366;12.348;2023-07-20T04:24:48;15.20;99.90
18191;DHT22;47004;51.366;12.348;2023-07-20T04:26:50;15.30;99.90
18191;DHT22;47004;51.366;12.348;2023-07-20T04:28:52;15.30;99.90
18191;DHT22;47004;51.366;12.348;2023-07-20T04:30:55;15.30;99.90
18191;DHT22;47004;51.366;12.348;2023-07-20T04:33:10;15.30;99.90
18191;DHT22;47004;51.366;12.348;2023-07-20T04:35:17;15.40;99.90
18191;DHT22;47004;51.366;12.348;2023-07-20T04:37:19;15.40;99.90
18191;DHT22;47004;51.366;12.348;2023-07-20T04:39:21;15.40;99.90
18191;DHT22;47004;51.366;12.348;2023-07-20T04:41:23;15.40;99.90
18191;DHT22;47004;51.366;12.348;2023-07-20T04:43:27;15.40;99.90
18191;DHT22;47004;51.366;12.348;2023-07-20T04:45:29;15.30;99.90
18191;DHT22;47004;51.366;12.348;2023-07-20T04:47:32;15.30;99.90
18191;DHT22;47004;51.366;12.348;2023-07-20T04:49:34;15.30;99.90
18191;DHT22;47004;51.366;12.348;2023-07-20T04:51:34;15.30;99.90
18191;DHT22;47004;51.366;12.348;2023-07-20T04:53:36;15.30;99.90
18191;DHT22;47004;51.366;12.348;2023-07-20T04:55:39;15.30;99.90
18191;DHT22;47004;51.366;12.348;2023-07-20T04:57:41;15.30;99.90
18191;DHT22;47004;51.366;12.348;2023-07-20T04:59:43;15.30;99.90
18191;DHT22;47004;51.366;12.348;2023-07-20T05:01:45;15.30;99.90
18191;DHT22;47004;51.366;12.348;2023-07-20T05:03:48;15.30;99.90
18191;DHT22;47004;51.366;12.348;2023-07-20T05:05:50;15.30;99.90
18191;DHT22;47004;51.366;12.348;2023-07-20T05:07:52;15.30;99.90
18191;DHT22;47004;51.366;12.348;2023-07-20T05:09:52;15.40;99.90
18191;DHT22;47004;51.366;12.348;2023-07-20T05:11:54;15.40;99.90
18191;DHT22;47004;51.366;12.348;2023-07-20T05:13:55;15.40;99.90
18191;DHT22;47004;51.366;12.348;2023-07-20T05:15:57;15.50;99.90
18191;DHT22;47004;51.366;12.348;2023-07-20T05:17:59;15.50;99.90
18191;DHT22;47004;51.366;12.348;2023-07-20T05:20:01;15.50;99.90
18191;DHT22;47004;51.366;12.348;2023-07-20T05:22:04;15.50;99.90
18191;DHT22;47004;51.366;12.348;2023-07-20T05:24:07;15.50;99.90
18191;DHT22;47004;51.366;12.348;2023-07-20T05:26:08;15.60;99.90
18191;DHT22;47004;51.366;12.348;2023-07-20T05:28:10;15.60;99.90
18191;DHT22;47004;51.366;12.348;2023-07-20T05:30:12;15.60;99.90
18191;DHT22;47004;51.366;12.348;2023-07-20T05:32:14;15.60;99.90
18191;DHT22;47004;51.366;12.348;2023-07-20T05:34:16;15.60;99.90
18191;DHT22;47004;51.366;12.348;2023-07-20T05:36:19;15.60;99.90
18191;DHT22;47004;51.366;12.348;2023-07-20T05:38:21;15.70;99.90
18191;DHT22;47004;51.366;12.348;2023-07-20T05:40:23;15.60;99.90
18191;DHT22;47004;51.366;12.348;2023-07-20T05:42:25;15.60;99.90
18191;DHT22;47004;51.366;12.348;2023-07-20T05:44:27;15.60;99.90
18191;DHT22;47004;51.366;12.348;2023-07-20T05:46:29;15.60;99.90
18191;DHT22;47004;51.366;12.348;2023-07-20T05:48:31;15.60;99.90
18191;DHT22;47004;51.366;12.348;2023-07-20T05:50:33;15.60;99.90
18191;DHT22;47004;51.366;12.348;2023-07-20T05:52:36;15.70;99.90
18191;DHT22;47004;51.366;12.348;2023-07-20T05:54:39;15.70;99.90
18191;DHT22;47004;51.366;12.348;2023-07-20T05:56:41;15.80;99.90
18191;DHT22;47004;51.366;12.348;2023-07-20T05:58:43;15.90;99.90
18191;DHT22;47004;51.366;12.348;2023-07-20T06:00:47;15.90;99.90
18191;DHT22;47004;51.366;12.348;2023-07-20T06:02:49;15.90;99.90
18191;DHT22;47004;51.366;12.348;2023-07-20T06:04:52;15.90;99.90
18191;DHT22;47004;51.366;12.348;2023-07-20T06:06:55;16.00;99.90
18191;DHT22;47004;51.366;12.348;2023-07-20T06:08:58;16.00;99.90
18191;DHT22;47004;51.366;12.348;2023-07-20T06:11:03;16.00;99.90
18191;DHT22;47004;51.366;12.348;2023-07-20T06:13:06;16.00;99.90
18191;DHT22;47004;51.366;12.348;2023-07-20T06:15:24;16.00;99.90
18191;DHT22;47004;51.366;12.348;2023-07-20T06:17:26;16.10;99.90
18191;DHT22;47004;51.366;12.348;2023-07-20T06:19:28;16.10;99.90
18191;DHT22;47004;51.366;12.348;2023-07-20T06:21:30;16.10;99.90
18191;DHT22;47004;51.366;12.348;2023-07-20T06:23:32;16.00;99.90
18191;DHT22;47004;51.366;12.348;2023-07-20T06:25:36;16.10;99.90
18191;DHT22;47004;51.366;12.348;2023-07-20T06:27:37;16.10;99.90
18191;DHT22;47004;51.366;12.348;2023-07-20T06:29:39;16.10;99.90
18191;DHT22;47004;51.366;12.348;2023-07-20T06:31:41;16.20;99.90
18191;DHT22;47004;51.366;12.348;2023-07-20T06:33:43;16.20;99.90
18191;DHT22;47004;51.366;12.348;2023-07-20T06:35:44;16.20;99.90
18191;DHT22;47004;51.366;12.348;2023-07-20T06:37:46;16.30;99.90
18191;DHT22;47004;51.366;12.348;2023-07-20T06:39:48;16.30;99.90
18191;DHT22;47004;51.366;12.348;2023-07-20T06:41:51;16.30;99.90
18191;DHT22;47004;51.366;12.348;2023-07-20T06:43:53;16.40;99.90
18191;DHT22;47004;51.366;12.348;2023-07-20T06:45:58;16.40;99.90
18191;DHT22;47004;51.366;12.348;2023-07-20T06:48:00;16.40;99.90
18191;DHT22;47004;51.366;12.348;2023-07-20T06:50:02;16.40;99.90
18191;DHT22;47004;51.366;12.348;2023-07-20T06:52:05;16.50;99.90
18191;DHT22;47004;51.366;12.348;2023-07-20T06:54:07;16.50;99.90
18191;DHT22;47004;51.366;12.348;2023-07-20T06:56:08;16.60;99.90
18191;DHT22;47004;51.366;12.348;2023-07-20T06:58:11;16.60;99.90
18191;DHT22;47004;51.366;12.348;2023-07-20T07:00:14;16.60;99.90
18191;DHT22;47004;51.366;12.348;2023-07-20T07:02:16;16.80;99.90
18191;DHT22;47004;51.366;12.348;2023-07-20T07:04:18;16.90;99.90
18191;DHT22;47004;51.366;12.348;2023-07-20T07:06:20;17.00;99.90
18191;DHT22;47004;51.366;12.348;2023-07-20T07:08:23;17.10;99.90
18191;DHT22;47004;51.366;12.348;2023-07-20T07:10:25;17.10;99.90
18191;DHT22;47004;51.366;12.348;2023-07-20T07:12:28;17.20;99.90
18191;DHT22;47004;51.366;12.348;2023-07-20T07:14:32;17.30;99.90
18191;DHT22;47004;51.366;12.348;2023-07-20T07:16:34;17.20;99.90
18191;DHT22;47004;51.366;12.348;2023-07-20T07:18:36;17.20;99.90
18191;DHT22;47004;51.366;12.348;2023-07-20T07:20:37;17.20;99.90
18191;DHT22;47004;51.366;12.348;2023-07-20T07:22:39;17.20;99.90
18191;DHT22;47004;51.366;12.348;2023-07-20T07:24:44;17.30;99.90
18191;DHT22;47004;51.366;12.348;2023-07-20T07:26:46;17.20;99.90
18191;DHT22;47004;51.366;12.348;2023-07-20T07:28:48;17.20;99.90
18191;DHT22;47004;51.366;12.348;2023-07-20T07:30:51;17.20;99.90
18191;DHT22;47004;51.366;12.348;2023-07-20T07:32:53;17.10;99.90
18191;DHT22;47004;51.366;12.348;2023-07-20T07:34:55;17.10;99.90
18191;DHT22;47004;51.366;12.348;2023-07-20T07:36:59;17.10;99.90
18191;DHT22;47004;51.366;12.348;2023-07-20T07:39:00;17.10;99.90
18191;DHT22;47004;51.366;12.348;2023-07-20T07:41:02;17.10;99.90
18191;DHT22;47004;51.366;12.348;2023-07-20T07:43:04;17.20;99.90
18191;DHT22;47004;51.366;12.348;2023-07-20T07:45:07;17.20;99.90
18191;DHT22;47004;51.366;12.348;2023-07-20T07:47:11;17.30;99.90
18191;DHT22;47004;51.366;12.348;2023-07-20T07:49:13;17.30;99.90
18191;DHT22;47004;51.366;12.348;2023-07-20T07:51:15;17.40;99.90
18191;DHT22;47004;51.366;12.348;2023-07-20T07:53:17;17.40;99.90
18191;DHT22;47004;51.366;12.348;2023-07-20T07:55:18;17.40;99.90
18191;DHT22;47004;51.366;12.348;2023-07-20T07:57:20;17.40;99.90
18191;DHT22;47004;51.366;12.348;2023-07-20T07:59:22;17.40;99.90
18191;DHT22;47004;51.366;12.348;2023-07-20T08:01:24;17.40;99.90
18191;DHT22;47004;51.366;12.348;2023-07-20T08:03:27;17.50;99.90
18191;DHT22;47004;51.366;12.348;2023-07-20T08:05:29;17.40;99.90
18191;DHT22;47004;51.366;12.348;2023-07-20T08:07:31;17.50;99.90
18191;DHT22;47004;51.366;12.348;2023-07-20T08:09:33;17.60;99.90
18191;DHT22;47004;51.366;12.348;2023-07-20T08:11:39;17.80;99.90
18191;DHT22;47004;51.366;12.348;2023-07-20T08:13:41;17.90;99.90
18191;DHT22;47004;51.366;12.348;2023-07-20T08:15:49;17.90;99.90
18191;DHT22;47004;51.366;12.348;2023-07-20T08:17:51;18.00;99.90
18191;DHT22;47004;51.366;12.348;2023-07-20T08:19:54;18.10;99.90
18191;DHT22;47004;51.366;12.348;2023-07-20T08:21:56;18.10;99.90
18191;DHT22;47004;51.366;12.348;2023-07-20T08:23:58;18.30;99.90
18191;DHT22;47004;51.366;12.348;2023-07-20T08:26:00;18.30;99.90
18191;DHT22;47004;51.366;12.348;2023-07-20T08:28:02;18.40;99.90
18191;DHT22;47004;51.366;12.348;2023-07-20T08:30:05;18.50;99.90
18191;DHT22;47004;51.366;12.348;2023-07-20T08:32:08;18.50;99.90
18191;DHT22;47004;51.366;12.348;2023-07-20T08:34:10;18.50;99.90
18191;DHT22;47004;51.366;12.348;2023-07-20T08:36:14;18.50;99.90
18191;DHT22;47004;51.366;12.348;2023-07-20T08:38:16;18.40;99.90
18191;DHT22;47004;51.366;12.348;2023-07-20T08:40:18;18.40;99.90
18191;DHT22;47004;51.366;12.348;2023-07-20T08:42:20;18.40;99.90
18191;DHT22;47004;51.366;12.348;2023-07-20T08:44:25;18.50;99.90
18191;DHT22;47004;51.366;12.348;2023-07-20T08:46:28;18.60;99.90
18191;DHT22;47004;51.366;12.348;2023-07-20T08:48:31;18.60;99.90
18191;DHT22;47004;51.366;12.348;2023-07-20T08:50:34;18.50;99.90
18191;DHT22;47004;51.366;12.348;2023-07-20T08:52:38;18.50;99.90
18191;DHT22;47004;51.366;12.348;2023-07-20T08:54:40;18.40;99.90
18191;DHT22;47004;51.366;12.348;2023-07-20T08:56:42;18.50;99.90
18191;DHT22;47004;51.366;12.348;2023-07-20T08:58:47;18.40;99.90
18191;DHT22;47004;51.366;12.348;2023-07-20T09:00:49;18.50;99.90
18191;DHT22;47004;51.366;12.348;2023-07-20T09:02:53;18.60;99.90
18191;DHT22;47004;51.366;12.348;2023-07-20T09:04:54;18.60;99.90
18191;DHT22;47004;51.366;12.348;2023-07-20T09:06:57;18.70;99.90
18191;DHT22;47004;51.366;12.348;2023-07-20T09:09:01;18.80;99.90
18191;DHT22;47004;51.366;12.348;2023-07-20T09:11:03;19.00;99.90
18191;DHT22;47004;51.366;12.348;2023-07-20T09:13:04;19.20;99.90
18191;DHT22;47004;51.366;12.348;2023-07-20T09:15:08;19.30;99.90
18191;DHT22;47004;51.366;12.348;2023-07-20T09:17:13;19.50;99.90
18191;DHT22;47004;51.366;12.348;2023-07-20T09:19:15;19.50;99.90
18191;DHT22;47004;51.366;12.348;2023-07-20T09:21:18;19.50;99.90
18191;DHT22;47004;51.366;12.348;2023-07-20T09:23:20;19.50;99.90
18191;DHT22;47004;51.366;12.348;2023-07-20T09:25:36;19.60;99.90
18191;DHT22;47004;51.366;12.348;2023-07-20T09:27:42;19.60;99.90
18191;DHT22;47004;51.366;12.348;2023-07-20T09:29:48;19.60;99.90
18191;DHT22;47004;51.366;12.348;2023-07-20T09:32:00;19.60;99.90
18191;DHT22;47004;51.366;12.348;2023-07-20T09:34:04;19.70;99.90
18191;DHT22;47004;51.366;12.348;2023-07-20T09:36:06;19.70;99.90
18191;DHT22;47004;51.366;12.348;2023-07-20T09:38:11;19.60;99.90
18191;DHT22;47004;51.366;12.348;2023-07-20T09:40:16;19.40;99.90
18191;DHT22;47004;51.366;12.348;2023-07-20T09:42:22;19.00;99.90
18191;DHT22;47004;51.366;12.348;2023-07-20T09:44:27;18.60;99.90
18191;DHT22;47004;51.366;12.348;2023-07-20T09:46:41;18.40;99.90
18191;DHT22;47004;51.366;12.348;2023-07-20T09:48:51;18.20;99.90
18191;DHT22;47004;51.366;12.348;2023-07-20T09:50:55;18.00;99.90
18191;DHT22;47004;51.366;12.348;2023-07-20T09:52:58;17.70;99.90
18191;DHT22;47004;51.366;12.348;2023-07-20T09:55:03;17.30;99.90
18191;DHT22;47004;51.366;12.348;2023-07-20T09:57:07;17.10;99.90
18191;DHT22;47004;51.366;12.348;2023-07-20T09:59:10;17.00;99.90
18191;DHT22;47004;51.366;12.348;2023-07-20T10:01:13;16.90;99.90
18191;DHT22;47004;51.366;12.348;2023-07-20T10:03:19;16.90;99.90
18191;DHT22;47004;51.366;12.348;2023-07-20T10:05:21;16.90;99.90
18191;DHT22;47004;51.366;12.348;2023-07-20T10:07:25;17.00;99.90
18191;DHT22;47004;51.366;12.348;2023-07-20T10:09:29;17.00;99.90
18191;DHT22;47004;51.366;12.348;2023-07-20T10:11:36;17.10;99.90
18191;DHT22;47004;51.366;12.348;2023-07-20T10:13:38;17.30;99.90
18191;DHT22;47004;51.366;12.348;2023-07-20T10:15:46;17.40;99.90
18191;DHT22;47004;51.366;12.348;2023-07-20T10:18:03;17.40;99.90
18191;DHT22;47004;51.366;12.348;2023-07-20T10:20:06;17.50;99.90
18191;DHT22;47004;51.366;12.348;2023-07-20T10:22:12;17.50;99.90
18191;DHT22;47004;51.366;12.348;2023-07-20T10:24:15;17.50;99.90
18191;DHT22;47004;51.366;12.348;2023-07-20T10:26:18;17.50;99.90
18191;DHT22;47004;51.366;12.348;2023-07-20T10:28:20;17.60;99.90
18191;DHT22;47004;51.366;12.348;2023-07-20T10:30:24;17.50;99.90
18191;DHT22;47004;51.366;12.348;2023-07-20T10:32:28;17.40;99.90
18191;DHT22;47004;51.366;12.348;2023-07-20T10:34:31;17.40;99.90
18191;DHT22;47004;51.366;12.348;2023-07-20T10:36:43;17.30;99.90
18191;DHT22;47004;51.366;12.348;2023-07-20T10:38:53;17.40;99.90
18191;DHT22;47004;51.366;12.348;2023-07-20T10:40:56;17.40;99.90
18191;DHT22;47004;51.366;12.348;2023-07-20T10:43:02;17.50;99.90
18191;DHT22;47004;51.366;12.348;2023-07-20T10:45:06;17.50;99.90
18191;DHT22;47004;51.366;12.348;2023-07-20T10:47:09;17.50;99.90
18191;DHT22;47004;51.366;12.348;2023-07-20T10:49:14;17.50;99.90
18191;DHT22;47004;51.366;12.348;2023-07-20T10:51:20;17.40;99.90
18191;DHT22;47004;51.366;12.348;2023-07-20T10:53:22;17.30;99.90
18191;DHT22;47004;51.366;12.348;2023-07-20T10:55:25;17.30;99.90
18191;DHT22;47004;51.366;12.348;2023-07-20T10:57:30;17.30;99.90
18191;DHT22;47004;51.366;12.348;2023-07-20T10:59:38;17.30;99.90
18191;DHT22;47004;51.366;12.348;2023-07-20T11:01:42;17.40;99.90
18191;DHT22;47004;51.366;12.348;2023-07-20T11:03:49;17.40;99.90
18191;DHT22;47004;51.366;12.348;2023-07-20T11:05:54;17.50;99.90
18191;DHT22;47004;51.366;12.348;2023-07-20T11:07:55;17.60;99.90
18191;DHT22;47004;51.366;12.348;2023-07-20T11:10:12;17.70;99.90
18191;DHT22;47004;51.366;12.348;2023-07-20T11:12:16;17.80;99.90
18191;DHT22;47004;51.366;12.348;2023-07-20T11:14:22;17.90;99.90
18191;DHT22;47004;51.366;12.348;2023-07-20T11:16:35;18.00;99.90
18191;DHT22;47004;51.366;12.348;2023-07-20T11:18:37;18.20;99.90
18191;DHT22;47004;51.366;12.348;2023-07-20T11:20:40;18.50;99.90
18191;DHT22;47004;51.366;12.348;2023-07-20T11:22:43;18.60;99.90
18191;DHT22;47004;51.366;12.348;2023-07-20T11:24:45;18.50;99.90
18191;DHT22;47004;51.366;12.348;2023-07-20T11:26:50;18.20;99.90
18191;DHT22;47004;51.366;12.348;2023-07-20T11:28:52;18.00;99.90
18191;DHT22;47004;51.366;12.348;2023-07-20T11:30:53;17.80;99.90
18191;DHT22;47004;51.366;12.348;2023-07-20T11:32:55;17.80;99.90
18191;DHT22;47004;51.366;12.348;2023-07-20T11:34:59;17.80;99.90
18191;DHT22;47004;51.366;12.348;2023-07-20T11:37:01;17.80;99.90
18191;DHT22;47004;51.366;12.348;2023-07-20T11:39:08;17.90;99.90
18191;DHT22;47004;51.366;12.348;2023-07-20T11:41:10;17.90;99.90
18191;DHT22;47004;51.366;12.348;2023-07-20T11:43:12;18.00;99.90
18191;DHT22;47004;51.366;12.348;2023-07-20T11:45:14;18.10;99.90
18191;DHT22;47004;51.366;12.348;2023-07-20T11:47:17;18.20;99.90
18191;DHT22;47004;51.366;12.348;2023-07-20T11:49:19;18.30;99.90
18191;DHT22;47004;51.366;12.348;2023-07-20T11:51:21;18.50;99.90
18191;DHT22;47004;51.366;12.348;2023-07-20T11:53:24;18.70;99.90
18191;DHT22;47004;51.366;12.348;2023-07-20T11:55:28;18.80;99.90
18191;DHT22;47004;51.366;12.348;2023-07-20T11:57:30;18.70;99.90
18191;DHT22;47004;51.366;12.348;2023-07-20T11:59:33;18.50;99.90
18191;DHT22;47004;51.366;12.348;2023-07-20T12:01:35;18.40;99.90
18191;DHT22;47004;51.366;12.348;2023-07-20T12:03:37;18.40;99.90
18191;DHT22;47004;51.366;12.348;2023-07-20T12:05:39;18.40;99.90
18191;DHT22;47004;51.366;12.348;2023-07-20T12:07:42;18.30;99.90
18191;DHT22;47004;51.366;12.348;2023-07-20T12:09:43;18.10;99.90
18191;DHT22;47004;51.366;12.348;2023-07-20T12:11:49;18.10;99.90
18191;DHT22;47004;51.366;12.348;2023-07-20T12:13:51;18.10;99.90
18191;DHT22;47004;51.366;12.348;2023-07-20T12:15:53;18.10;99.90
18191;DHT22;47004;51.366;12.348;2023-07-20T12:17:58;18.20;99.90
18191;DHT22;47004;51.366;12.348;2023-07-20T12:20:00;18.20;99.90
18191;DHT22;47004;51.366;12.348;2023-07-20T12:22:02;18.20;99.90
18191;DHT22;47004;51.366;12.348;2023-07-20T12:24:05;18.30;99.90
18191;DHT22;47004;51.366;12.348;2023-07-20T12:26:08;18.40;99.90
18191;DHT22;47004;51.366;12.348;2023-07-20T12:28:15;18.50;99.90
18191;DHT22;47004;51.366;12.348;2023-07-20T12:30:17;18.70;99.90
18191;DHT22;47004;51.366;12.348;2023-07-20T12:32:19;18.90;99.90
18191;DHT22;47004;51.366;12.348;2023-07-20T12:34:21;19.00;99.90
18191;DHT22;47004;51.366;12.348;2023-07-20T12:36:23;19.10;99.90
18191;DHT22;47004;51.366;12.348;2023-07-20T12:38:26;19.30;99.90
18191;DHT22;47004;51.366;12.348;2023-07-20T12:40:29;19.50;99.90
18191;DHT22;47004;51.366;12.348;2023-07-20T12:42:31;19.60;99.90
18191;DHT22;47004;51.366;12.348;2023-07-20T12:44:33;20.10;99.90
18191;DHT22;47004;51.366;12.348;2023-07-20T12:46:35;20.60;99.90
18191;DHT22;47004;51.366;12.348;2023-07-20T12:48:40;20.80;99.90